Time;durP1;ratioP1;P1;durP2;ratioP2;P2;SDS_P1;SDS_P2;PMS_P1;PMS_P2;Temp;Humidity;BMP_temperature;BMP_pressure;BME280_temperature;BME280_humidity;BME280_pressure;Samples;Min_cycle;Max_cycle;Signal;HPM_P1;HPM_P2
2024/01/26 03:06:42;;;;;;;5.00;3.60;;;;;;;1.55;100.00;99687.09;107003;1310;544732;-48
2024/01/26 03:09:07;;;;;;;7.20;3.30;;;;;;;1.52;100.00;99685.73;107676;1292;23146;-48
2024/01/26 03:11:41;;;;;;;7.10;3.20;;;;;;;1.55;100.00;99689.33;107686;1291;22961;-46
2024/01/26 03:14:07;;;;;;;3.20;2.90;;;;;;;1.55;100.00;99690.53;107666;1292;22641;-46
2024/01/26 03:16:34;;;;;;;3.60;2.90;;;;;;;1.52;100.00;99696.11;107653;1289;23111;-48
2024/01/26 03:18:59;;;;;;;7.80;3.40;;;;;;;1.63;100.00;99698.04;107656;1310;22262;-46
2024/01/26 03:21:24;;;;;;;3.40;2.50;;;;;;;1.64;100.00;99699.41;107832;1289;103954;-47
2024/01/26 03:23:50;;;;;;;3.10;2.40;;;;;;;1.67;100.00;99706.81;107878;1308;22218;-50
2024/01/26 03:26:15;;;;;;;5.30;2.60;;;;;;;1.66;100.00;99705.80;107831;1308;22608;-47
2024/01/26 03:28:40;;;;;;;7.70;3.40;;;;;;;1.56;100.00;99703.66;107887;1308;23357;-50
2024/01/26 03:31:06;;;;;;;4.20;2.60;;;;;;;1.58;100.00;99703.98;107884;1308;22281;-49
2024/01/26 03:33:31;;;;;;;4.00;2.20;;;;;;;1.62;100.00;99708.44;107927;1289;22446;-50
2024/01/26 03:35:56;;;;;;;6.60;2.70;;;;;;;1.59;100.00;99707.77;107900;1308;22996;-51
2024/01/26 03:38:22;;;;;;;3.50;2.20;;;;;;;1.58;100.00;99701.73;107894;1308;22256;-50
2024/01/26 03:40:47;;;;;;;6.00;2.60;;;;;;;1.52;100.00;99698.52;107891;1308;22558;-49
2024/01/26 03:43:12;;;;;;;6.20;3.30;;;;;;;1.61;100.00;99701.35;107892;1289;22244;-51
2024/01/26 03:45:37;;;;;;;4.00;2.30;;;;;;;1.60;100.00;99699.98;107844;1286;23159;-47
2024/01/26 03:48:03;;;;;;;3.90;2.50;;;;;;;1.58;100.00;99698.63;107913;1289;22493;-49
2024/01/26 03:50:28;;;;;;;4.60;2.40;;;;;;;1.61;100.00;99701.36;107893;1308;22744;-48
2024/01/26 03:52:54;;;;;;;2.80;2.30;;;;;;;1.64;100.00;99700.63;107886;1286;22248;-47
2024/01/26 03:55:19;;;;;;;5.50;2.70;;;;;;;1.63;100.00;99702.02;107890;1288;22423;-48
2024/01/26 03:57:44;;;;;;;7.70;2.50;;;;;;;1.65;100.00;99704.08;107889;1308;22737;-48
2024/01/26 04:00:10;;;;;;;6.40;2.70;;;;;;;1.70;100.00;99705.58;107915;1288;22241;-51
2024/01/26 04:02:35;;;;;;;4.60;2.70;;;;;;;1.64;100.00;99710.82;107939;1302;22260;-53
2024/01/26 04:05:02;;;;;;;5.00;2.70;;;;;;;1.66;100.00;99708.72;107939;1289;22293;-51
2024/01/26 04:07:27;;;;;;;3.10;2.40;;;;;;;1.70;100.00;99705.73;107918;1285;22423;-50
2024/01/26 04:09:53;;;;;;;9.20;3.10;;;;;;;1.74;100.00;99711.40;107900;1286;22472;-51
2024/01/26 04:12:19;;;;;;;4.90;3.10;;;;;;;1.71;100.00;99716.78;107908;1308;22480;-53
2024/01/26 04:14:44;;;;;;;7.60;2.80;;;;;;;1.76;100.00;99716.55;107914;1289;22446;-52
2024/01/26 04:17:09;;;;;;;4.90;2.90;;;;;;;1.78;100.00;99715.15;107896;1289;22963;-50
2024/01/26 04:19:35;;;;;;;9.70;3.80;;;;;;;1.82;100.00;99715.60;107833;1308;22306;-51
2024/01/26 04:22:00;;;;;;;6.70;3.40;;;;;;;1.85;100.00;99718.67;107867;1289;22173;-51
2024/01/26 04:24:25;;;;;;;6.00;3.40;;;;;;;1.87;100.00;99725.05;107869;1308;23158;-51
2024/01/26 04:26:51;;;;;;;4.60;3.10;;;;;;;1.82;100.00;99725.46;107844;1291;22260;-51
2024/01/26 04:29:17;;;;;;;4.30;3.50;;;;;;;1.89;100.00;99721.74;107858;1291;22206;-50
2024/01/26 04:31:42;;;;;;;4.10;3.10;;;;;;;1.84;100.00;99719.56;107858;1308;22436;-50
2024/01/26 04:34:08;;;;;;;5.00;3.40;;;;;;;1.84;100.00;99719.91;107889;1289;22238;-48
2024/01/26 04:36:33;;;;;;;9.40;3.90;;;;;;;1.81;100.00;99729.12;107874;1289;22426;-50
2024/01/26 04:39:01;;;;;;;8.40;4.20;;;;;;;1.84;100.00;99731.31;107858;1308;23097;-48
2024/01/26 04:41:26;;;;;;;9.50;4.00;;;;;;;1.82;100.00;99732.20;107994;1307;23139;-51
2024/01/26 04:43:51;;;;;;;5.90;3.40;;;;;;;1.85;100.00;99731.30;108007;1286;22421;-49
2024/01/26 04:46:16;;;;;;;8.70;4.20;;;;;;;1.84;100.00;99733.57;107986;1288;23126;-52
2024/01/26 04:48:42;;;;;;;9.80;3.90;;;;;;;1.75;100.00;99737.66;107995;1307;22431;-46
2024/01/26 04:51:07;;;;;;;5.80;4.10;;;;;;;1.78;100.00;99739.69;107976;1307;23097;-49
